sensor_id;sensor_type;location;lat;lon;timestamp;P1;P2;P0
42002;PMS7003;27693;50.506;30.832;2022-09-16T00:00:49;6.11;4.89;4.56
42002;PMS7003;27693;50.506;30.832;2022-09-16T00:01:51;7.80;7.20;6.10
42002;PMS7003;27693;50.506;30.832;2022-09-16T00:02:54;6.20;6.20;5.20
42002;PMS7003;27693;50.506;30.832;2022-09-16T00:03:57;6.55;6.55;4.91
42002;PMS7003;27693;50.506;30.832;2022-09-16T00:04:58;9.44;7.89;6.67
42002;PMS7003;27693;50.506;30.832;2022-09-16T00:06:01;8.10;8.10;6.20
42002;PMS7003;27693;50.506;30.832;2022-09-16T00:07:03;8.80;8.20;6.90
42002;PMS7003;27693;50.506;30.832;2022-09-16T00:08:05;8.00;7.44;6.44
42002;PMS7003;27693;50.506;30.832;2022-09-16T00:09:08;9.00;8.80;7.30
42002;PMS7003;27693;50.506;30.832;2022-09-16T00:10:12;7.90;7.90;6.60
42002;PMS7003;27693;50.506;30.832;2022-09-16T00:11:14;6.20;6.20;5.30
42002;PMS7003;27693;50.506;30.832;2022-09-16T00:12:18;7.40;6.80;6.00
42002;PMS7003;27693;50.506;30.832;2022-09-16T00:13:24;8.00;7.10;6.40
42002;PMS7003;27693;50.506;30.832;2022-09-16T00:14:26;8.30;8.00;6.40
42002;PMS7003;27693;50.506;30.832;2022-09-16T00:15:28;8.90;7.90;7.20
42002;PMS7003;27693;50.506;30.832;2022-09-16T00:16:31;2.80;2.80;1.70
42002;PMS7003;27693;50.506;30.832;2022-09-16T00:17:34;6.30;6.30;5.00
42002;PMS7003;27693;50.506;30.832;2022-09-16T00:18:36;7.80;7.80;6.40
42002;PMS7003;27693;50.506;30.832;2022-09-16T00:19:38;7.50;7.00;5.30
42002;PMS7003;27693;50.506;30.832;2022-09-16T00:20:42;7.70;7.70;6.20
42002;PMS7003;27693;50.506;30.832;2022-09-16T00:21:49;12.20;9.10;6.40
42002;PMS7003;27693;50.506;30.832;2022-09-16T00:22:51;6.50;6.30;5.60
42002;PMS7003;27693;50.506;30.832;2022-09-16T00:23:54;8.30;7.80;5.80
42002;PMS7003;27693;50.506;30.832;2022-09-16T00:24:59;7.80;7.80;6.60
42002;PMS7003;27693;50.506;30.832;2022-09-16T00:26:01;9.40;8.10;6.60
42002;PMS7003;27693;50.506;30.832;2022-09-16T00:27:05;8.40;7.70;6.40
42002;PMS7003;27693;50.506;30.832;2022-09-16T00:28:07;10.10;8.10;5.80
42002;PMS7003;27693;50.506;30.832;2022-09-16T00:29:09;2.80;2.80;2.60
42002;PMS7003;27693;50.506;30.832;2022-09-16T00:30:13;9.70;8.20;6.20
42002;PMS7003;27693;50.506;30.832;2022-09-16T00:31:16;9.50;7.10;5.90
42002;PMS7003;27693;50.506;30.832;2022-09-16T00:32:19;9.00;8.10;6.60
42002;PMS7003;27693;50.506;30.832;2022-09-16T00:33:20;11.22;9.22;7.67
42002;PMS7003;27693;50.506;30.832;2022-09-16T00:34:23;9.80;9.50;7.30
42002;PMS7003;27693;50.506;30.832;2022-09-16T00:35:25;7.10;7.10;5.90
42002;PMS7003;27693;50.506;30.832;2022-09-16T00:36:27;11.50;8.90;6.70
42002;PMS7003;27693;50.506;30.832;2022-09-16T00:37:31;8.70;8.60;7.10
42002;PMS7003;27693;50.506;30.832;2022-09-16T00:38:33;10.90;9.60;7.60
42002;PMS7003;27693;50.506;30.832;2022-09-16T00:39:36;7.60;6.60;5.40
42002;PMS7003;27693;50.506;30.832;2022-09-16T00:40:45;8.90;7.90;6.00
42002;PMS7003;27693;50.506;30.832;2022-09-16T00:41:49;8.50;8.50;6.50
42002;PMS7003;27693;50.506;30.832;2022-09-16T00:42:51;11.10;8.90;7.70
42002;PMS7003;27693;50.506;30.832;2022-09-16T00:43:57;9.56;8.56;7.78
42002;PMS7003;27693;50.506;30.832;2022-09-16T00:45:04;10.20;9.30;7.50
42002;PMS7003;27693;50.506;30.832;2022-09-16T00:46:15;11.20;8.80;7.00
42002;PMS7003;27693;50.506;30.832;2022-09-16T00:48:36;10.30;8.40;6.70
42002;PMS7003;27693;50.506;30.832;2022-09-16T00:49:38;9.40;8.00;7.20
42002;PMS7003;27693;50.506;30.832;2022-09-16T00:50:44;10.00;9.45;7.45
42002;PMS7003;27693;50.506;30.832;2022-09-16T00:51:50;10.70;9.10;7.60
42002;PMS7003;27693;50.506;30.832;2022-09-16T00:52:55;8.80;8.00;7.40
42002;PMS7003;27693;50.506;30.832;2022-09-16T00:54:01;9.20;8.80;7.10
42002;PMS7003;27693;50.506;30.832;2022-09-16T00:55:06;9.70;9.20;7.10
42002;PMS7003;27693;50.506;30.832;2022-09-16T00:56:11;6.70;6.70;5.90
42002;PMS7003;27693;50.506;30.832;2022-09-16T00:57:14;8.00;7.30;5.70
42002;PMS7003;27693;50.506;30.832;2022-09-16T00:58:27;7.50;5.90;5.40
42002;PMS7003;27693;50.506;30.832;2022-09-16T00:59:38;10.60;9.90;7.80
42002;PMS7003;27693;50.506;30.832;2022-09-16T01:00:42;8.10;7.00;6.00
42002;PMS7003;27693;50.506;30.832;2022-09-16T01:01:45;9.30;8.30;6.90
42002;PMS7003;27693;50.506;30.832;2022-09-16T01:02:49;9.80;8.70;7.00
42002;PMS7003;27693;50.506;30.832;2022-09-16T01:03:53;6.50;4.90;2.70
42002;PMS7003;27693;50.506;30.832;2022-09-16T01:05:05;11.60;10.10;7.10
42002;PMS7003;27693;50.506;30.832;2022-09-16T01:06:11;11.00;9.10;7.70
42002;PMS7003;27693;50.506;30.832;2022-09-16T01:07:20;10.90;9.40;8.70
42002;PMS7003;27693;50.506;30.832;2022-09-16T01:08:27;12.10;11.90;10.30
42002;PMS7003;27693;50.506;30.832;2022-09-16T01:09:29;8.60;8.60;7.00
42002;PMS7003;27693;50.506;30.832;2022-09-16T01:10:32;12.40;10.80;8.70
42002;PMS7003;27693;50.506;30.832;2022-09-16T01:11:35;7.82;6.27;4.91
42002;PMS7003;27693;50.506;30.832;2022-09-16T01:12:37;9.90;9.80;7.50
42002;PMS7003;27693;50.506;30.832;2022-09-16T01:13:42;10.20;9.90;8.60
42002;PMS7003;27693;50.506;30.832;2022-09-16T01:14:47;12.00;10.70;8.90
42002;PMS7003;27693;50.506;30.832;2022-09-16T01:18:39;9.00;8.70;6.10
42002;PMS7003;27693;50.506;30.832;2022-09-16T01:25:06;16.90;15.10;10.80
42002;PMS7003;27693;50.506;30.832;2022-09-16T01:26:38;17.80;16.40;12.80
42002;PMS7003;27693;50.506;30.832;2022-09-16T01:31:17;15.20;14.40;11.40
42002;PMS7003;27693;50.506;30.832;2022-09-16T01:31:45;16.30;12.90;10.10
42002;PMS7003;27693;50.506;30.832;2022-09-16T01:32:52;16.70;15.10;12.20
42002;PMS7003;27693;50.506;30.832;2022-09-16T01:34:16;12.20;10.70;7.70
42002;PMS7003;27693;50.506;30.832;2022-09-16T01:37:07;19.00;18.00;14.10
42002;PMS7003;27693;50.506;30.832;2022-09-16T01:39:28;10.60;8.00;6.00
42002;PMS7003;27693;50.506;30.832;2022-09-16T01:42:28;16.50;13.00;10.70
42002;PMS7003;27693;50.506;30.832;2022-09-16T01:45:07;20.10;15.90;13.30
42002;PMS7003;27693;50.506;30.832;2022-09-16T01:46:16;19.70;16.40;12.70
42002;PMS7003;27693;50.506;30.832;2022-09-16T01:47:29;16.50;13.60;10.80
42002;PMS7003;27693;50.506;30.832;2022-09-16T01:48:43;18.00;16.60;12.00
42002;PMS7003;27693;50.506;30.832;2022-09-16T01:50:04;17.90;16.80;13.60
42002;PMS7003;27693;50.506;30.832;2022-09-16T01:51:06;20.70;17.60;15.10
42002;PMS7003;27693;50.506;30.832;2022-09-16T01:52:16;16.80;15.00;12.50
42002;PMS7003;27693;50.506;30.832;2022-09-16T01:53:32;15.70;14.90;12.40
42002;PMS7003;27693;50.506;30.832;2022-09-16T01:55:58;15.90;14.90;10.20
42002;PMS7003;27693;50.506;30.832;2022-09-16T01:58:41;19.80;17.70;13.90
42002;PMS7003;27693;50.506;30.832;2022-09-16T01:59:57;13.80;13.10;8.90
42002;PMS7003;27693;50.506;30.832;2022-09-16T02:01:08;15.90;15.00;12.20
42002;PMS7003;27693;50.506;30.832;2022-09-16T02:03:41;19.40;17.30;12.30
42002;PMS7003;27693;50.506;30.832;2022-09-16T02:04:48;15.80;14.50;11.00
42002;PMS7003;27693;50.506;30.832;2022-09-16T02:06:02;16.60;15.10;11.60
42002;PMS7003;27693;50.506;30.832;2022-09-16T02:07:13;20.10;17.30;13.60
42002;PMS7003;27693;50.506;30.832;2022-09-16T02:08:25;15.20;14.90;13.00
42002;PMS7003;27693;50.506;30.832;2022-09-16T02:09:26;19.40;18.20;14.20
42002;PMS7003;27693;50.506;30.832;2022-09-16T02:10:32;14.40;12.80;8.30
42002;PMS7003;27693;50.506;30.832;2022-09-16T02:11:43;12.80;12.50;10.70
42002;PMS7003;27693;50.506;30.832;2022-09-16T02:12:48;18.70;16.20;12.90
42002;PMS7003;27693;50.506;30.832;2022-09-16T02:14:02;16.30;15.30;12.20
42002;PMS7003;27693;50.506;30.832;2022-09-16T02:15:09;18.30;16.10;12.40
42002;PMS7003;27693;50.506;30.832;2022-09-16T02:16:19;18.00;17.20;13.40
42002;PMS7003;27693;50.506;30.832;2022-09-16T02:17:26;16.90;12.70;9.10
42002;PMS7003;27693;50.506;30.832;2022-09-16T02:18:32;19.80;18.10;13.80
42002;PMS7003;27693;50.506;30.832;2022-09-16T02:19:38;18.10;18.00;13.50
42002;PMS7003;27693;50.506;30.832;2022-09-16T02:20:44;18.80;17.30;14.40
42002;PMS7003;27693;50.506;30.832;2022-09-16T02:21:48;17.60;15.80;12.20
42002;PMS7003;27693;50.506;30.832;2022-09-16T02:22:57;17.20;15.00;12.50
42002;PMS7003;27693;50.506;30.832;2022-09-16T02:24:03;18.90;16.30;12.20
42002;PMS7003;27693;50.506;30.832;2022-09-16T02:25:08;19.40;18.80;14.40
42002;PMS7003;27693;50.506;30.832;2022-09-16T02:26:14;20.10;17.00;13.60
42002;PMS7003;27693;50.506;30.832;2022-09-16T02:27:20;19.10;17.20;14.00
42002;PMS7003;27693;50.506;30.832;2022-09-16T02:28:24;17.10;13.10;10.40
42002;PMS7003;27693;50.506;30.832;2022-09-16T02:29:36;19.50;17.80;15.00
42002;PMS7003;27693;50.506;30.832;2022-09-16T02:30:44;18.40;16.00;12.80
42002;PMS7003;27693;50.506;30.832;2022-09-16T02:31:49;15.10;14.60;12.00
42002;PMS7003;27693;50.506;30.832;2022-09-16T02:33:02;20.70;16.90;12.90
42002;PMS7003;27693;50.506;30.832;2022-09-16T02:34:06;17.60;15.90;12.40
42002;PMS7003;27693;50.506;30.832;2022-09-16T02:35:14;16.00;14.80;11.40
42002;PMS7003;27693;50.506;30.832;2022-09-16T02:36:18;16.00;15.00;11.70
42002;PMS7003;27693;50.506;30.832;2022-09-16T02:38:34;18.90;16.50;12.90
42002;PMS7003;27693;50.506;30.832;2022-09-16T02:39:41;17.20;15.80;12.90
42002;PMS7003;27693;50.506;30.832;2022-09-16T02:40:47;13.50;11.80;9.60
42002;PMS7003;27693;50.506;30.832;2022-09-16T02:42:00;16.10;14.30;11.40
42002;PMS7003;27693;50.506;30.832;2022-09-16T02:43:03;17.50;17.30;13.30
42002;PMS7003;27693;50.506;30.832;2022-09-16T02:44:05;17.90;14.60;11.80
42002;PMS7003;27693;50.506;30.832;2022-09-16T02:45:09;17.50;17.40;13.60
42002;PMS7003;27693;50.506;30.832;2022-09-16T02:46:28;16.80;16.00;11.60
42002;PMS7003;27693;50.506;30.832;2022-09-16T02:49:04;12.10;11.50;10.80
42002;PMS7003;27693;50.506;30.832;2022-09-16T02:50:28;17.70;16.70;12.50
42002;PMS7003;27693;50.506;30.832;2022-09-16T02:53:11;18.80;16.10;12.40
42002;PMS7003;27693;50.506;30.832;2022-09-16T02:56:39;16.40;15.40;11.30
42002;PMS7003;27693;50.506;30.832;2022-09-16T02:57:43;19.80;19.10;14.50
42002;PMS7003;27693;50.506;30.832;2022-09-16T02:58:45;19.70;17.10;13.10
42002;PMS7003;27693;50.506;30.832;2022-09-16T02:59:47;17.80;15.90;13.30
42002;PMS7003;27693;50.506;30.832;2022-09-16T03:00:51;15.90;13.80;10.60
42002;PMS7003;27693;50.506;30.832;2022-09-16T03:01:57;17.40;16.50;13.10
42002;PMS7003;27693;50.506;30.832;2022-09-16T03:03:00;16.70;14.20;11.00
42002;PMS7003;27693;50.506;30.832;2022-09-16T03:04:02;14.80;13.10;9.20
42002;PMS7003;27693;50.506;30.832;2022-09-16T03:05:05;19.00;14.90;12.60
42002;PMS7003;27693;50.506;30.832;2022-09-16T03:06:12;18.50;16.60;12.40
42002;PMS7003;27693;50.506;30.832;2022-09-16T03:07:17;18.30;15.10;13.20
42002;PMS7003;27693;50.506;30.832;2022-09-16T03:08:21;22.50;19.60;14.10
42002;PMS7003;27693;50.506;30.832;2022-09-16T03:09:23;17.50;16.70;13.20
42002;PMS7003;27693;50.506;30.832;2022-09-16T03:10:28;17.90;16.70;13.70
42002;PMS7003;27693;50.506;30.832;2022-09-16T03:12:44;19.30;14.50;10.90
42002;PMS7003;27693;50.506;30.832;2022-09-16T03:16:32;18.70;17.50;13.70
42002;PMS7003;27693;50.506;30.832;2022-09-16T03:22:50;18.70;15.60;12.10
42002;PMS7003;27693;50.506;30.832;2022-09-16T03:24:07;22.00;15.60;11.80
42002;PMS7003;27693;50.506;30.832;2022-09-16T03:30:29;14.90;12.90;9.30
42002;PMS7003;27693;50.506;30.832;2022-09-16T03:31:38;18.20;17.30;13.40
42002;PMS7003;27693;50.506;30.832;2022-09-16T03:32:52;18.80;17.60;13.60
42002;PMS7003;27693;50.506;30.832;2022-09-16T03:34:03;20.10;18.00;12.90
42002;PMS7003;27693;50.506;30.832;2022-09-16T03:35:13;16.90;15.60;11.80
42002;PMS7003;27693;50.506;30.832;2022-09-16T03:36:28;17.10;14.50;12.10
42002;PMS7003;27693;50.506;30.832;2022-09-16T03:37:34;17.00;15.10;12.20
42002;PMS7003;27693;50.506;30.832;2022-09-16T03:38:39;12.80;9.60;8.60
42002;PMS7003;27693;50.506;30.832;2022-09-16T03:39:47;19.40;16.80;12.90
42002;PMS7003;27693;50.506;30.832;2022-09-16T03:40:52;17.70;17.00;12.60
42002;PMS7003;27693;50.506;30.832;2022-09-16T03:41:54;16.20;14.80;13.20
42002;PMS7003;27693;50.506;30.832;2022-09-16T03:43:09;17.60;14.80;11.90
42002;PMS7003;27693;50.506;30.832;2022-09-16T03:44:13;18.00;15.90;13.40
42002;PMS7003;27693;50.506;30.832;2022-09-16T03:45:17;19.44;16.11;11.22
42002;PMS7003;27693;50.506;30.832;2022-09-16T03:46:22;19.40;15.80;11.30
42002;PMS7003;27693;50.506;30.832;2022-09-16T03:47:26;17.30;17.00;12.70
42002;PMS7003;27693;50.506;30.832;2022-09-16T03:48:29;17.70;15.60;11.50
42002;PMS7003;27693;50.506;30.832;2022-09-16T03:49:31;20.40;16.50;12.70
42002;PMS7003;27693;50.506;30.832;2022-09-16T03:50:33;17.90;16.70;14.10
42002;PMS7003;27693;50.506;30.832;2022-09-16T03:51:35;20.90;16.80;12.80
42002;PMS7003;27693;50.506;30.832;2022-09-16T03:52:37;17.20;15.20;13.10
42002;PMS7003;27693;50.506;30.832;2022-09-16T03:53:39;20.00;18.00;13.67
42002;PMS7003;27693;50.506;30.832;2022-09-16T03:54:41;16.44;16.00;11.89
42002;PMS7003;27693;50.506;30.832;2022-09-16T03:55:43;19.22;15.33;11.67
42002;PMS7003;27693;50.506;30.832;2022-09-16T03:56:45;19.90;19.00;14.60
42002;PMS7003;27693;50.506;30.832;2022-09-16T03:57:47;15.60;14.30;10.50
42002;PMS7003;27693;50.506;30.832;2022-09-16T03:58:50;17.80;17.10;13.80
42002;PMS7003;27693;50.506;30.832;2022-09-16T03:59:53;19.82;17.09;13.64
42002;PMS7003;27693;50.506;30.832;2022-09-16T04:00:55;20.40;16.70;13.60
42002;PMS7003;27693;50.506;30.832;2022-09-16T04:01:57;20.80;16.90;11.90
42002;PMS7003;27693;50.506;30.832;2022-09-16T04:02:59;19.50;17.60;13.50
42002;PMS7003;27693;50.506;30.832;2022-09-16T04:04:02;17.40;16.30;11.90
42002;PMS7003;27693;50.506;30.832;2022-09-16T04:05:04;23.10;19.80;16.10
42002;PMS7003;27693;50.506;30.832;2022-09-16T04:06:08;22.50;17.60;12.90
42002;PMS7003;27693;50.506;30.832;2022-09-16T04:07:10;17.00;14.20;10.70
42002;PMS7003;27693;50.506;30.832;2022-09-16T04:08:12;23.11;19.44;14.67
42002;PMS7003;27693;50.506;30.832;2022-09-16T04:09:15;18.10;17.40;14.10
42002;PMS7003;27693;50.506;30.832;2022-09-16T04:10:18;19.18;16.64;12.64
42002;PMS7003;27693;50.506;30.832;2022-09-16T04:11:20;18.40;17.70;13.00
42002;PMS7003;27693;50.506;30.832;2022-09-16T04:12:21;17.67;16.00;13.11
42002;PMS7003;27693;50.506;30.832;2022-09-16T04:13:24;20.10;18.50;14.60
42002;PMS7003;27693;50.506;30.832;2022-09-16T04:14:27;13.50;11.90;7.40
42002;PMS7003;27693;50.506;30.832;2022-09-16T04:15:28;18.80;17.70;13.70
42002;PMS7003;27693;50.506;30.832;2022-09-16T04:16:31;19.36;17.36;13.91
42002;PMS7003;27693;50.506;30.832;2022-09-16T04:17:34;17.50;17.10;13.00
42002;PMS7003;27693;50.506;30.832;2022-09-16T04:18:37;18.90;18.00;13.50
42002;PMS7003;27693;50.506;30.832;2022-09-16T04:19:38;20.00;19.00;13.78
42002;PMS7003;27693;50.506;30.832;2022-09-16T04:20:40;22.10;19.60;13.70
42002;PMS7003;27693;50.506;30.832;2022-09-16T04:21:43;19.90;17.20;14.10
42002;PMS7003;27693;50.506;30.832;2022-09-16T04:22:45;19.33;17.89;13.89
42002;PMS7003;27693;50.506;30.832;2022-09-16T04:23:46;17.11;16.11;12.11
42002;PMS7003;27693;50.506;30.832;2022-09-16T04:24:49;17.70;16.30;12.20
42002;PMS7003;27693;50.506;30.832;2022-09-16T04:25:59;18.50;16.80;13.70
42002;PMS7003;27693;50.506;30.832;2022-09-16T04:27:00;23.00;18.90;12.70
42002;PMS7003;27693;50.506;30.832;2022-09-16T04:28:02;17.70;13.20;9.70
42002;PMS7003;27693;50.506;30.832;2022-09-16T04:29:05;18.90;14.40;10.90
42002;PMS7003;27693;50.506;30.832;2022-09-16T04:30:08;24.60;18.60;14.00
42002;PMS7003;27693;50.506;30.832;2022-09-16T04:31:12;14.70;13.70;10.30
42002;PMS7003;27693;50.506;30.832;2022-09-16T04:32:16;15.80;15.00;12.00
42002;PMS7003;27693;50.506;30.832;2022-09-16T04:33:18;18.22;16.44;12.78
42002;PMS7003;27693;50.506;30.832;2022-09-16T04:34:20;18.30;15.50;11.60
42002;PMS7003;27693;50.506;30.832;2022-09-16T04:35:22;19.90;16.70;12.80
42002;PMS7003;27693;50.506;30.832;2022-09-16T04:36:25;18.64;17.09;12.82
42002;PMS7003;27693;50.506;30.832;2022-09-16T04:37:28;19.80;16.60;12.90
42002;PMS7003;27693;50.506;30.832;2022-09-16T04:38:32;18.90;14.80;10.70
42002;PMS7003;27693;50.506;30.832;2022-09-16T04:39:36;16.10;13.90;12.10
42002;PMS7003;27693;50.506;30.832;2022-09-16T04:40:38;15.50;14.20;11.40
42002;PMS7003;27693;50.506;30.832;2022-09-16T04:41:41;16.40;13.60;10.70
42002;PMS7003;27693;50.506;30.832;2022-09-16T04:42:49;16.56;14.22;11.56
42002;PMS7003;27693;50.506;30.832;2022-09-16T04:43:57;18.90;16.60;13.30
42002;PMS7003;27693;50.506;30.832;2022-09-16T04:44:56;18.80;14.90;11.00
42002;PMS7003;27693;50.506;30.832;2022-09-16T04:45:59;18.30;16.70;13.10
42002;PMS7003;27693;50.506;30.832;2022-09-16T04:47:02;17.80;16.30;12.90
42002;PMS7003;27693;50.506;30.832;2022-09-16T04:48:04;14.10;12.90;10.00
42002;PMS7003;27693;50.506;30.832;2022-09-16T04:49:06;16.22;15.67;12.89
42002;PMS7003;27693;50.506;30.832;2022-09-16T04:50:09;15.30;15.30;12.30
42002;PMS7003;27693;50.506;30.832;2022-09-16T04:51:11;17.00;16.00;11.80
42002;PMS7003;27693;50.506;30.832;2022-09-16T04:52:16;14.00;11.80;9.20
42002;PMS7003;27693;50.506;30.832;2022-09-16T04:53:19;16.10;14.40;10.60
42002;PMS7003;27693;50.506;30.832;2022-09-16T04:54:21;18.90;17.50;13.10
42002;PMS7003;27693;50.506;30.832;2022-09-16T04:55:23;15.40;13.50;10.30
42002;PMS7003;27693;50.506;30.832;2022-09-16T04:56:28;20.00;15.80;11.90
42002;PMS7003;27693;50.506;30.832;2022-09-16T04:57:32;16.60;15.10;11.80
42002;PMS7003;27693;50.506;30.832;2022-09-16T04:58:34;20.00;17.40;13.00
42002;PMS7003;27693;50.506;30.832;2022-09-16T04:59:37;15.40;14.30;11.10
42002;PMS7003;27693;50.506;30.832;2022-09-16T05:00:39;12.09;9.82;7.55
42002;PMS7003;27693;50.506;30.832;2022-09-16T05:01:43;17.80;15.10;12.40
42002;PMS7003;27693;50.506;30.832;2022-09-16T05:02:45;19.10;15.40;12.60
42002;PMS7003;27693;50.506;30.832;2022-09-16T05:03:48;19.70;15.80;12.20
42002;PMS7003;27693;50.506;30.832;2022-09-16T05:04:52;15.50;14.20;11.70
42002;PMS7003;27693;50.506;30.832;2022-09-16T05:06:02;16.10;14.80;10.60
42002;PMS7003;27693;50.506;30.832;2022-09-16T05:07:00;17.20;15.00;12.00
42002;PMS7003;27693;50.506;30.832;2022-09-16T05:08:02;15.20;13.70;10.40
42002;PMS7003;27693;50.506;30.832;2022-09-16T05:09:05;13.20;12.30;9.20
42002;PMS7003;27693;50.506;30.832;2022-09-16T05:10:09;16.20;16.00;12.20
42002;PMS7003;27693;50.506;30.832;2022-09-16T05:11:16;12.22;11.22;9.89
42002;PMS7003;27693;50.506;30.832;2022-09-16T05:12:16;12.60;10.80;7.80
42002;PMS7003;27693;50.506;30.832;2022-09-16T05:13:18;13.30;11.50;8.00
42002;PMS7003;27693;50.506;30.832;2022-09-16T05:14:20;12.11;8.44;7.22
42002;PMS7003;27693;50.506;30.832;2022-09-16T05:15:22;12.90;11.90;9.80
42002;PMS7003;27693;50.506;30.832;2022-09-16T05:16:25;14.20;13.70;10.60
42002;PMS7003;27693;50.506;30.832;2022-09-16T05:17:28;15.70;14.60;12.10
42002;PMS7003;27693;50.506;30.832;2022-09-16T05:18:33;17.00;14.60;11.90
42002;PMS7003;27693;50.506;30.832;2022-09-16T05:19:36;18.50;16.60;12.80
42002;PMS7003;27693;50.506;30.832;2022-09-16T05:20:38;15.40;14.40;9.10
42002;PMS7003;27693;50.506;30.832;2022-09-16T05:21:40;18.70;16.70;13.20
42002;PMS7003;27693;50.506;30.832;2022-09-16T05:22:42;16.20;14.30;10.70
42002;PMS7003;27693;50.506;30.832;2022-09-16T05:23:45;14.40;13.80;10.20
42002;PMS7003;27693;50.506;30.832;2022-09-16T05:24:48;16.00;14.60;10.50
42002;PMS7003;27693;50.506;30.832;2022-09-16T05:25:51;14.70;11.70;9.20
42002;PMS7003;27693;50.506;30.832;2022-09-16T05:26:53;15.40;14.50;11.60
42002;PMS7003;27693;50.506;30.832;2022-09-16T05:27:55;13.78;12.56;9.78
42002;PMS7003;27693;50.506;30.832;2022-09-16T05:28:59;14.90;12.50;7.70
42002;PMS7003;27693;50.506;30.832;2022-09-16T05:30:06;17.90;15.20;11.50
42002;PMS7003;27693;50.506;30.832;2022-09-16T05:31:14;17.30;13.60;10.30
42002;PMS7003;27693;50.506;30.832;2022-09-16T05:32:22;13.70;13.40;9.60
42002;PMS7003;27693;50.506;30.832;2022-09-16T05:33:24;16.00;13.80;10.20
42002;PMS7003;27693;50.506;30.832;2022-09-16T05:34:26;17.44;16.11;11.89
42002;PMS7003;27693;50.506;30.832;2022-09-16T05:35:28;16.10;13.50;10.40
42002;PMS7003;27693;50.506;30.832;2022-09-16T05:36:33;17.30;15.20;10.60
42002;PMS7003;27693;50.506;30.832;2022-09-16T05:37:36;12.30;11.30;9.20
42002;PMS7003;27693;50.506;30.832;2022-09-16T05:38:38;14.70;12.90;10.40
42002;PMS7003;27693;50.506;30.832;2022-09-16T05:39:41;13.64;12.00;10.00
42002;PMS7003;27693;50.506;30.832;2022-09-16T05:40:44;14.30;12.40;8.40
42002;PMS7003;27693;50.506;30.832;2022-09-16T05:41:47;12.60;11.50;9.20
42002;PMS7003;27693;50.506;30.832;2022-09-16T05:42:49;13.36;12.55;9.82
42002;PMS7003;27693;50.506;30.832;2022-09-16T05:43:51;15.60;12.20;9.00
42002;PMS7003;27693;50.506;30.832;2022-09-16T05:44:54;15.40;12.60;9.90
42002;PMS7003;27693;50.506;30.832;2022-09-16T05:45:56;12.70;11.80;8.10
42002;PMS7003;27693;50.506;30.832;2022-09-16T05:46:59;11.82;10.91;7.82
42002;PMS7003;27693;50.506;30.832;2022-09-16T05:48:02;11.55;10.91;8.45
42002;PMS7003;27693;50.506;30.832;2022-09-16T05:49:04;11.20;8.80;7.60
42002;PMS7003;27693;50.506;30.832;2022-09-16T05:50:07;9.20;9.20;6.70
42002;PMS7003;27693;50.506;30.832;2022-09-16T05:51:10;14.20;12.40;9.70
42002;PMS7003;27693;50.506;30.832;2022-09-16T05:52:17;9.30;8.90;7.10
42002;PMS7003;27693;50.506;30.832;2022-09-16T05:53:21;9.20;8.40;6.40
42002;PMS7003;27693;50.506;30.832;2022-09-16T05:54:23;15.09;14.00;10.36
42002;PMS7003;27693;50.506;30.832;2022-09-16T05:55:26;12.20;11.20;9.40
42002;PMS7003;27693;50.506;30.832;2022-09-16T05:56:28;10.70;9.40;6.90
42002;PMS7003;27693;50.506;30.832;2022-09-16T05:57:31;15.00;13.00;9.40
42002;PMS7003;27693;50.506;30.832;2022-09-16T05:58:34;11.90;9.70;8.00
42002;PMS7003;27693;50.506;30.832;2022-09-16T05:59:37;10.80;10.70;8.80
42002;PMS7003;27693;50.506;30.832;2022-09-16T06:00:39;13.20;11.70;8.80
42002;PMS7003;27693;50.506;30.832;2022-09-16T06:01:41;12.67;11.22;9.11
42002;PMS7003;27693;50.506;30.832;2022-09-16T06:02:43;12.09;10.64;8.91
42002;PMS7003;27693;50.506;30.832;2022-09-16T06:03:48;14.70;14.30;11.40
42002;PMS7003;27693;50.506;30.832;2022-09-16T06:04:52;13.70;12.30;9.00
42002;PMS7003;27693;50.506;30.832;2022-09-16T06:07:09;14.80;14.10;10.80
42002;PMS7003;27693;50.506;30.832;2022-09-16T06:08:12;15.91;14.55;11.55
42002;PMS7003;27693;50.506;30.832;2022-09-16T06:09:15;13.40;12.20;10.00
42002;PMS7003;27693;50.506;30.832;2022-09-16T06:10:20;16.00;14.30;10.70
42002;PMS7003;27693;50.506;30.832;2022-09-16T06:11:22;13.00;10.22;9.00
42002;PMS7003;27693;50.506;30.832;2022-09-16T06:12:25;10.90;10.20;7.20
42002;PMS7003;27693;50.506;30.832;2022-09-16T06:13:27;16.10;15.60;10.80
42002;PMS7003;27693;50.506;30.832;2022-09-16T06:14:30;13.18;13.00;10.36
42002;PMS7003;27693;50.506;30.832;2022-09-16T06:15:32;15.40;11.90;10.00
42002;PMS7003;27693;50.506;30.832;2022-09-16T06:16:35;12.30;11.00;8.60
42002;PMS7003;27693;50.506;30.832;2022-09-16T06:17:38;9.60;8.60;7.00
42002;PMS7003;27693;50.506;30.832;2022-09-16T06:18:41;11.50;11.50;9.20
42002;PMS7003;27693;50.506;30.832;2022-09-16T06:19:43;12.90;11.10;9.20
42002;PMS7003;27693;50.506;30.832;2022-09-16T06:20:46;11.20;11.00;9.50
42002;PMS7003;27693;50.506;30.832;2022-09-16T06:21:48;12.82;11.00;9.27
42002;PMS7003;27693;50.506;30.832;2022-09-16T06:22:50;13.70;12.40;9.80
42002;PMS7003;27693;50.506;30.832;2022-09-16T06:23:52;5.44;5.44;5.44
42002;PMS7003;27693;50.506;30.832;2022-09-16T06:24:55;15.30;11.80;9.30
42002;PMS7003;27693;50.506;30.832;2022-09-16T06:25:58;9.11;8.33;6.78
42002;PMS7003;27693;50.506;30.832;2022-09-16T06:27:01;15.20;12.50;9.40
42002;PMS7003;27693;50.506;30.832;2022-09-16T06:28:02;8.44;8.44;6.89
42002;PMS7003;27693;50.506;30.832;2022-09-16T06:29:05;15.00;11.40;9.50
42002;PMS7003;27693;50.506;30.832;2022-09-16T06:30:09;15.00;12.80;9.70
42002;PMS7003;27693;50.506;30.832;2022-09-16T06:31:13;11.18;10.73;9.18
42002;PMS7003;27693;50.506;30.832;2022-09-16T06:32:18;12.50;10.50;8.20
42002;PMS7003;27693;50.506;30.832;2022-09-16T06:33:20;15.00;13.00;10.00
42002;PMS7003;27693;50.506;30.832;2022-09-16T06:34:22;13.60;12.60;9.70
42002;PMS7003;27693;50.506;30.832;2022-09-16T06:35:24;12.56;11.44;9.22
42002;PMS7003;27693;50.506;30.832;2022-09-16T06:36:28;9.40;8.00;6.40
42002;PMS7003;27693;50.506;30.832;2022-09-16T06:37:35;12.80;10.20;8.30
42002;PMS7003;27693;50.506;30.832;2022-09-16T06:38:38;12.30;12.30;10.40
42002;PMS7003;27693;50.506;30.832;2022-09-16T06:39:41;13.55;11.73;9.55
42002;PMS7003;27693;50.506;30.832;2022-09-16T06:40:43;10.20;10.00;7.40
42002;PMS7003;27693;50.506;30.832;2022-09-16T06:41:45;11.11;10.11;7.22
42002;PMS7003;27693;50.506;30.832;2022-09-16T06:42:48;12.20;11.90;9.50
42002;PMS7003;27693;50.506;30.832;2022-09-16T06:43:58;14.50;11.40;9.50
42002;PMS7003;27693;50.506;30.832;2022-09-16T06:45:00;11.40;10.40;9.50
42002;PMS7003;27693;50.506;30.832;2022-09-16T06:46:04;14.90;12.70;9.20
42002;PMS7003;27693;50.506;30.832;2022-09-16T06:47:09;11.00;9.30;6.20